createdAt,value
2023-10-23T00:00:59.747Z,29.02
2023-10-23T00:03:30.233Z,29.04
2023-10-23T00:06:00.186Z,29.04
2023-10-23T00:08:30.407Z,29.01
2023-10-23T00:11:00.513Z,29.02
2023-10-23T00:13:30.786Z,29.01
2023-10-23T00:16:00.975Z,28.99
2023-10-23T00:18:30.849Z,28.98
2023-10-23T00:21:01.166Z,28.98
2023-10-23T00:23:31.087Z,28.98
2023-10-23T00:26:04.152Z,28.96
2023-10-23T00:28:34.669Z,28.98
2023-10-23T00:31:04.900Z,29.02
2023-10-23T00:33:38.988Z,29.04
2023-10-23T00:36:09.261Z,29.10
2023-10-23T00:38:39.576Z,29.12
2023-10-23T00:41:11.716Z,29.15
2023-10-23T00:43:44.973Z,29.18
2023-10-23T00:46:25.059Z,29.20
2023-10-23T00:48:55.719Z,29.23
2023-10-23T00:51:25.715Z,29.27
2023-10-23T00:53:56.811Z,29.30
2023-10-23T00:56:26.863Z,29.33
2023-10-23T00:58:56.939Z,29.35
2023-10-23T01:01:34.043Z,29.39
2023-10-23T01:04:06.615Z,29.40
2023-10-23T01:06:36.899Z,29.44
2023-10-23T01:09:07.830Z,29.46
2023-10-23T01:11:43.350Z,29.48
2023-10-23T01:14:13.690Z,29.49
2023-10-23T01:16:44.015Z,29.53
2023-10-23T01:19:17.154Z,29.55
2023-10-23T01:21:50.103Z,29.56
2023-10-23T01:24:23.644Z,29.58
2023-10-23T01:26:54.029Z,29.60
2023-10-23T01:29:24.414Z,29.63
2023-10-23T01:31:54.485Z,29.65
2023-10-23T01:34:27.976Z,29.67
2023-10-23T01:37:00.788Z,29.68
2023-10-23T01:39:31.146Z,29.70
2023-10-23T01:42:03.534Z,29.71
2023-10-23T01:44:33.903Z,29.73
2023-10-23T01:47:04.018Z,29.75
2023-10-23T01:49:37.077Z,29.77
2023-10-23T01:52:07.246Z,29.78
2023-10-23T01:54:37.320Z,29.79
2023-10-23T01:57:10.107Z,29.82
2023-10-23T01:59:40.558Z,29.84
2023-10-23T02:02:10.666Z,29.86
2023-10-23T02:04:43.417Z,29.88
2023-10-23T02:07:13.686Z,29.90
2023-10-23T02:09:43.679Z,29.92
2023-10-23T02:12:19.542Z,29.94
2023-10-23T02:14:52.757Z,29.97
2023-10-23T02:17:28.978Z,29.99
2023-10-23T02:20:07.459Z,30.01
2023-10-23T02:22:40.414Z,30.03
2023-10-23T02:25:13.948Z,30.06
2023-10-23T02:27:44.361Z,30.08
2023-10-23T02:30:17.407Z,30.10
2023-10-23T02:32:47.920Z,30.12
2023-10-23T02:35:17.887Z,30.15
2023-10-23T02:37:52.048Z,30.17
2023-10-23T02:40:22.365Z,30.20
2023-10-23T02:42:54.637Z,30.22
2023-10-23T02:45:27.697Z,30.25
2023-10-23T02:48:00.920Z,30.26
2023-10-23T02:50:31.260Z,30.30
2023-10-23T02:53:08.556Z,30.32
2023-10-23T02:55:38.793Z,30.35
2023-10-23T02:58:11.535Z,30.38
2023-10-23T03:00:54.079Z,30.40
2023-10-23T03:03:27.931Z,30.43
2023-10-23T03:05:58.308Z,30.45
2023-10-23T03:08:28.247Z,30.48
2023-10-23T03:10:58.431Z,30.51
2023-10-23T03:13:28.435Z,30.54
2023-10-23T03:16:17.166Z,30.57
2023-10-23T03:18:50.235Z,30.60
2023-10-23T03:21:22.455Z,30.62
2023-10-23T03:26:40.803Z,30.69
2023-10-23T03:29:11.125Z,30.72
2023-10-23T03:31:41.180Z,30.74
2023-10-23T03:34:14.750Z,30.76
2023-10-23T03:36:47.329Z,30.80
2023-10-23T03:39:17.334Z,30.81
2023-10-23T03:41:56.542Z,30.85
2023-10-23T03:44:28.719Z,30.86
2023-10-23T03:46:59.204Z,30.89
2023-10-23T03:49:44.053Z,30.91
2023-10-23T03:52:17.260Z,30.93
2023-10-23T03:54:57.953Z,30.96
2023-10-23T03:57:31.182Z,30.97
2023-10-23T04:00:04.611Z,30.99
2023-10-23T04:02:45.072Z,31.01
2023-10-23T04:05:15.340Z,31.03
2023-10-23T04:07:45.342Z,31.04
2023-10-23T04:10:16.415Z,31.07
2023-10-23T04:12:46.677Z,31.09
2023-10-23T04:15:19.722Z,31.11
2023-10-23T04:17:50.115Z,31.12
2023-10-23T04:20:23.782Z,31.13
2023-10-23T04:22:54.016Z,31.14
2023-10-23T04:25:23.971Z,31.18
2023-10-23T04:27:54.339Z,31.19
2023-10-23T04:30:27.002Z,31.19
2023-10-23T04:33:27.316Z,31.21
2023-10-23T04:36:01.763Z,31.23
2023-10-23T04:38:33.416Z,31.25
2023-10-23T04:41:03.654Z,31.26
2023-10-23T04:43:35.593Z,31.27
2023-10-23T04:46:08.569Z,31.29
2023-10-23T04:48:41.840Z,31.31
2023-10-23T04:51:15.361Z,31.31
2023-10-23T04:53:51.382Z,31.33
2023-10-23T04:56:21.563Z,31.34
2023-10-23T04:58:54.933Z,31.34
2023-10-23T05:01:30.955Z,31.35
2023-10-23T05:04:04.963Z,31.37
2023-10-23T05:06:38.632Z,31.36
2023-10-23T05:09:09.168Z,31.37
2023-10-23T05:11:39.153Z,31.38
2023-10-23T05:14:09.683Z,31.38
2023-10-23T05:16:39.847Z,31.13
2023-10-23T05:19:12.809Z,31.39
2023-10-23T05:21:43.089Z,31.39
2023-10-23T05:24:16.453Z,31.39
2023-10-23T05:26:46.599Z,31.40
2023-10-23T05:29:19.669Z,31.39
2023-10-23T05:31:49.916Z,31.39
2023-10-23T05:34:28.829Z,31.38
2023-10-23T05:36:59.148Z,31.40
2023-10-23T05:39:51.958Z,31.40
2023-10-23T05:42:22.376Z,31.39
2023-10-23T05:47:45.809Z,31.40
2023-10-23T05:50:19.389Z,31.39
2023-10-23T05:52:52.339Z,31.39
2023-10-23T05:55:23.243Z,31.39
2023-10-23T05:57:54.668Z,31.39
2023-10-23T06:00:29.121Z,31.39
2023-10-23T06:02:59.497Z,31.39
2023-10-23T06:05:29.523Z,31.39
2023-10-23T06:07:59.705Z,31.40
2023-10-23T06:10:33.123Z,31.41
2023-10-23T06:13:17.292Z,31.39
2023-10-23T06:15:47.897Z,31.41
2023-10-23T06:18:38.892Z,31.41
2023-10-23T06:21:11.918Z,31.43
2023-10-23T06:24:01.972Z,31.44
2023-10-23T06:26:38.108Z,31.46
2023-10-23T06:29:11.188Z,31.47
2023-10-23T06:31:44.238Z,31.49
2023-10-23T06:34:25.848Z,31.49
2023-10-23T06:36:59.109Z,31.52
2023-10-23T06:39:29.314Z,31.53
2023-10-23T06:41:59.691Z,31.54
2023-10-23T06:44:35.064Z,31.56
2023-10-23T06:47:08.230Z,31.57
2023-10-23T06:49:41.300Z,31.59
2023-10-23T06:52:15.596Z,31.60
2023-10-23T06:54:56.157Z,31.62
2023-10-23T06:57:26.539Z,31.65
2023-10-23T07:00:02.207Z,31.66
2023-10-23T07:02:32.548Z,31.67
2023-10-23T07:05:23.667Z,31.70
2023-10-23T07:07:54.058Z,31.69
2023-10-23T07:10:26.567Z,31.72
2023-10-23T07:13:18.899Z,31.75
2023-10-23T07:15:55.916Z,31.76
2023-10-23T07:18:26.387Z,31.78
2023-10-23T07:21:05.498Z,31.77
2023-10-23T07:23:35.861Z,31.79
2023-10-23T07:26:18.810Z,31.81
2023-10-23T07:28:49.928Z,31.81
2023-10-23T07:31:25.843Z,31.82
2023-10-23T07:33:56.524Z,31.84
2023-10-23T07:36:26.939Z,31.86
2023-10-23T07:38:57.210Z,31.86
2023-10-23T07:41:47.320Z,31.85
2023-10-23T07:44:18.388Z,31.87
2023-10-23T07:46:48.973Z,31.88
2023-10-23T07:49:19.386Z,31.88
2023-10-23T07:51:55.469Z,31.89
2023-10-23T07:54:26.169Z,31.88
2023-10-23T07:56:59.836Z,31.89
2023-10-23T07:59:33.521Z,31.90
2023-10-23T08:02:03.918Z,31.91
2023-10-23T08:04:40.065Z,31.90
2023-10-23T08:07:16.425Z,31.90
2023-10-23T08:09:46.758Z,31.90
2023-10-23T08:12:16.745Z,31.89
2023-10-23T08:14:47.006Z,31.89
2023-10-23T08:17:24.489Z,31.89
2023-10-23T08:20:07.751Z,31.88
2023-10-23T08:22:38.123Z,31.87
2023-10-23T08:25:08.912Z,31.87
2023-10-23T08:27:42.178Z,31.86
2023-10-23T08:30:12.878Z,31.83
2023-10-23T08:32:52.408Z,31.82
2023-10-23T08:35:24.515Z,31.82
2023-10-23T08:37:58.158Z,31.79
2023-10-23T08:40:31.528Z,31.80
2023-10-23T08:43:02.995Z,31.78
2023-10-23T08:45:33.749Z,31.77
2023-10-23T08:48:04.289Z,31.75
2023-10-23T08:50:34.921Z,31.73
2023-10-23T08:53:17.086Z,31.71
2023-10-23T08:55:47.659Z,31.69
2023-10-23T08:58:18.682Z,31.66
2023-10-23T09:00:49.120Z,31.64
2023-10-23T09:04:04.643Z,31.61
2023-10-23T09:06:24.474Z,31.58
2023-10-23T09:08:54.787Z,31.56
2023-10-23T09:11:48.094Z,31.52
2023-10-23T09:14:26.111Z,31.49
2023-10-23T09:17:00.299Z,31.47
2023-10-23T09:19:39.241Z,31.21
2023-10-23T09:22:13.166Z,31.03
2023-10-23T09:24:43.667Z,30.91
2023-10-23T09:27:16.380Z,30.99
2023-10-23T09:29:46.653Z,31.06
2023-10-23T09:32:16.967Z,31.09
2023-10-23T09:34:47.075Z,31.09
2023-10-23T09:37:17.327Z,31.09
2023-10-23T09:39:50.295Z,31.09
2023-10-23T09:42:20.475Z,31.07
2023-10-23T09:45:01.213Z,31.06
2023-10-23T09:47:32.158Z,31.03
2023-10-23T09:50:04.978Z,31.01
2023-10-23T09:52:36.518Z,30.98
2023-10-23T09:55:12.085Z,30.97
2023-10-23T09:57:53.042Z,30.94
2023-10-23T10:00:28.608Z,30.91
2023-10-23T10:03:06.743Z,30.87
2023-10-23T10:05:37.165Z,30.84
2023-10-23T10:08:10.796Z,30.81
2023-10-23T10:10:44.256Z,30.78
2023-10-23T10:13:14.584Z,30.75
2023-10-23T10:15:48.603Z,30.72
2023-10-23T10:18:19.011Z,30.68
2023-10-23T10:20:50.844Z,30.66
2023-10-23T10:23:21.914Z,30.64
2023-10-23T10:25:52.603Z,30.60
2023-10-23T10:28:29.086Z,30.57
2023-10-23T10:30:59.577Z,30.55
2023-10-23T10:34:27.332Z,30.51
2023-10-23T10:36:45.238Z,30.47
2023-10-23T10:39:19.557Z,30.45
2023-10-23T10:41:49.909Z,30.42
2023-10-23T10:44:24.946Z,30.41
2023-10-23T10:46:56.789Z,30.40
2023-10-23T10:49:34.036Z,30.37
2023-10-23T10:52:17.901Z,30.05
2023-10-23T10:54:48.062Z,30.22
2023-10-23T10:57:21.836Z,30.16
2023-10-23T10:59:58.475Z,30.12
2023-10-23T11:02:28.887Z,30.09
2023-10-23T11:04:59.092Z,30.05
2023-10-23T11:07:30.022Z,30.04
2023-10-23T11:10:00.195Z,30.04
2023-10-23T11:12:30.481Z,30.01
2023-10-23T11:15:01.598Z,29.98
2023-10-23T11:17:35.206Z,29.99
2023-10-23T11:20:15.614Z,29.97
2023-10-23T11:22:46.635Z,29.98
2023-10-23T11:25:17.629Z,29.98
2023-10-23T11:27:54.267Z,30.00
2023-10-23T11:30:48.653Z,30.02
2023-10-23T11:33:21.171Z,30.03
2023-10-23T11:35:51.423Z,30.04
2023-10-23T11:38:26.475Z,30.06
2023-10-23T11:40:56.624Z,30.05
2023-10-23T11:43:26.641Z,30.05
2023-10-23T11:45:56.735Z,30.05
2023-10-23T11:48:27.125Z,30.05
2023-10-23T11:50:57.365Z,30.04
2023-10-23T11:53:35.308Z,30.04
2023-10-23T11:56:06.241Z,30.04
2023-10-23T11:58:38.523Z,30.03
2023-10-23T12:01:10.806Z,30.03
2023-10-23T12:03:43.775Z,30.02
2023-10-23T12:06:14.243Z,30.01
2023-10-23T12:08:44.298Z,30.01
2023-10-23T12:11:20.489Z,30.01
2023-10-23T12:13:53.374Z,30.01
2023-10-23T12:16:26.633Z,30.01
2023-10-23T12:18:57.252Z,30.01
2023-10-23T12:21:33.100Z,30.00
2023-10-23T12:24:03.377Z,30.00
2023-10-23T12:26:39.325Z,29.98
2023-10-23T12:29:14.897Z,29.99
2023-10-23T12:32:01.501Z,29.98
2023-10-23T12:34:37.832Z,29.96
2023-10-23T12:37:14.177Z,29.97
2023-10-23T12:39:44.528Z,29.96
2023-10-23T12:42:17.413Z,29.95
2023-10-23T12:44:51.020Z,29.95
2023-10-23T12:47:26.718Z,29.94
2023-10-23T12:49:56.913Z,29.93
2023-10-23T12:52:26.931Z,29.93
2023-10-23T12:55:03.248Z,29.92
2023-10-23T12:57:34.125Z,29.92
2023-10-23T13:00:09.372Z,29.90
2023-10-23T13:02:42.142Z,29.92
2023-10-23T13:05:17.846Z,29.89
2023-10-23T13:07:47.949Z,29.84
2023-10-23T13:10:18.439Z,29.81
2023-10-23T13:12:52.543Z,29.75
2023-10-23T13:15:30.146Z,29.72
2023-10-23T13:18:02.570Z,29.71
2023-10-23T13:21:31.046Z,29.67
2023-10-23T13:23:37.001Z,29.67
2023-10-23T13:26:13.824Z,29.64
2023-10-23T13:28:49.360Z,29.66
2023-10-23T13:31:22.834Z,29.64
2023-10-23T13:33:55.630Z,29.66
2023-10-23T13:36:29.086Z,29.66
2023-10-23T13:39:08.201Z,29.66
2023-10-23T13:41:38.696Z,29.68
2023-10-23T13:44:11.772Z,29.67
2023-10-23T13:46:47.248Z,29.67
2023-10-23T13:49:17.521Z,29.66
2023-10-23T13:51:47.918Z,29.66
2023-10-23T13:54:26.948Z,29.59
2023-10-23T13:56:57.261Z,29.55
2023-10-23T13:59:30.218Z,29.58
2023-10-23T14:02:08.046Z,29.58
2023-10-23T14:04:40.993Z,29.59
2023-10-23T14:07:20.555Z,29.59
2023-10-23T14:09:53.553Z,29.59
2023-10-23T14:12:43.786Z,29.59
2023-10-23T14:15:13.961Z,29.59
2023-10-23T14:17:44.118Z,29.59
2023-10-23T14:20:17.029Z,29.57
2023-10-23T14:22:52.803Z,29.58
2023-10-23T14:25:34.302Z,29.58
2023-10-23T14:28:04.972Z,29.58
2023-10-23T14:30:37.774Z,29.58
2023-10-23T14:33:08.788Z,29.59
2023-10-23T14:35:39.723Z,29.60
2023-10-23T14:38:10.130Z,29.61
2023-10-23T14:40:43.189Z,29.60
2023-10-23T14:43:13.635Z,29.61
2023-10-23T14:45:43.757Z,29.65
2023-10-23T14:48:30.619Z,29.62
2023-10-23T14:51:03.482Z,29.64
2023-10-23T14:53:34.439Z,29.61
2023-10-23T14:56:11.519Z,29.60
2023-10-23T14:58:44.834Z,29.57
2023-10-23T15:01:15.841Z,29.56
2023-10-23T15:03:48.982Z,29.55
2023-10-23T15:06:19.177Z,29.53
2023-10-23T15:08:54.771Z,29.52
2023-10-23T15:11:34.689Z,29.56
2023-10-23T15:14:14.114Z,29.56
2023-10-23T15:16:44.297Z,29.47
2023-10-23T15:19:17.478Z,29.37
2023-10-23T15:21:47.690Z,29.26
2023-10-23T15:24:17.663Z,29.20
2023-10-23T15:26:48.303Z,29.13
2023-10-23T15:29:27.214Z,29.07
2023-10-23T15:32:03.544Z,29.00
2023-10-23T15:34:34.325Z,28.90
2023-10-23T15:37:04.634Z,28.90
2023-10-23T15:39:42.743Z,28.84
2023-10-23T15:42:16.216Z,28.79
2023-10-23T15:44:46.575Z,28.73
2023-10-23T15:47:16.689Z,28.68
2023-10-23T15:49:47.080Z,28.62
2023-10-23T15:52:27.807Z,28.57
2023-10-23T15:55:00.913Z,28.55
2023-10-23T15:57:35.148Z,28.60
2023-10-23T16:00:16.420Z,28.66
2023-10-23T16:02:49.772Z,28.69
2023-10-23T16:05:23.786Z,28.70
2023-10-23T16:07:57.324Z,28.69
2023-10-23T16:10:27.711Z,28.69
2023-10-23T16:12:58.202Z,28.68
2023-10-23T16:15:28.613Z,28.67
2023-10-23T16:18:01.229Z,28.64
2023-10-23T16:20:31.626Z,28.60
2023-10-23T16:23:04.295Z,28.60
2023-10-23T16:25:43.408Z,28.59
2023-10-23T16:28:15.416Z,28.55
2023-10-23T16:30:46.053Z,28.51
2023-10-23T16:33:16.274Z,28.49
2023-10-23T16:35:50.874Z,28.47
2023-10-23T16:38:22.665Z,28.45
2023-10-23T16:40:52.746Z,28.43
2023-10-23T16:43:25.774Z,28.40
2023-10-23T16:45:56.146Z,28.38
2023-10-23T16:48:26.340Z,28.36
2023-10-23T16:50:56.673Z,28.34
2023-10-23T16:53:26.627Z,28.32
2023-10-23T16:56:00.804Z,28.30
2023-10-23T16:58:31.316Z,28.27
2023-10-23T17:01:06.130Z,28.26
2023-10-23T17:03:47.442Z,28.24
2023-10-23T17:06:21.259Z,28.22
2023-10-23T17:08:54.462Z,28.19
2023-10-23T17:11:24.772Z,28.19
2023-10-23T17:13:55.168Z,28.17
2023-10-23T17:16:28.270Z,28.16
2023-10-23T17:18:58.662Z,28.13
2023-10-23T17:21:31.443Z,28.11
2023-10-23T17:24:05.572Z,28.09
2023-10-23T17:26:39.421Z,28.07
2023-10-23T17:29:10.048Z,28.06
2023-10-23T17:31:40.436Z,28.05
2023-10-23T17:34:10.518Z,28.01
2023-10-23T17:36:40.769Z,28.01
2023-10-23T17:39:11.532Z,27.98
2023-10-23T17:41:41.708Z,27.98
2023-10-23T17:44:11.856Z,27.97
2023-10-23T17:46:42.249Z,27.94
2023-10-23T17:49:13.278Z,27.93
2023-10-23T17:51:43.754Z,27.92
2023-10-23T17:54:15.573Z,27.91
2023-10-23T17:56:48.707Z,27.87
2023-10-23T17:59:18.825Z,27.87
2023-10-23T18:01:49.419Z,27.85
2023-10-23T18:04:19.726Z,27.85
2023-10-23T18:06:51.766Z,27.84
2023-10-23T18:09:22.021Z,27.83
2023-10-23T18:11:51.983Z,27.81
2023-10-23T18:14:31.088Z,27.80
2023-10-23T18:17:01.421Z,27.79
2023-10-23T18:19:31.825Z,27.77
2023-10-23T18:22:05.192Z,27.76
2023-10-23T18:24:35.551Z,27.78
2023-10-23T18:27:09.898Z,27.74
2023-10-23T18:29:43.408Z,27.73
2023-10-23T18:32:13.620Z,27.71
2023-10-23T18:34:46.042Z,27.71
2023-10-23T18:37:21.793Z,27.72
2023-10-23T18:39:52.083Z,27.69
2023-10-23T18:42:22.410Z,27.67
2023-10-23T18:44:52.616Z,27.65
2023-10-23T18:47:22.952Z,27.67
2023-10-23T18:49:56.009Z,27.66
2023-10-23T18:52:29.215Z,27.63
2023-10-23T18:54:59.546Z,27.63
2023-10-23T18:57:29.547Z,27.63
2023-10-23T19:00:02.919Z,27.59
2023-10-23T19:02:33.406Z,27.59
2023-10-23T19:05:03.512Z,27.59
2023-10-23T19:07:35.146Z,27.57
2023-10-23T19:10:06.908Z,27.57
2023-10-23T19:12:37.451Z,27.55
2023-10-23T19:15:07.632Z,27.54
2023-10-23T19:17:41.007Z,27.54
2023-10-23T19:20:11.712Z,27.52
2023-10-23T19:22:41.861Z,27.52
2023-10-23T19:25:12.220Z,27.52
2023-10-23T19:27:42.438Z,27.49
2023-10-23T19:30:13.774Z,27.49
2023-10-23T19:32:44.459Z,27.48
2023-10-23T19:35:15.120Z,27.47
2023-10-23T19:37:45.535Z,27.45
2023-10-23T19:40:15.809Z,27.44
2023-10-23T19:42:51.339Z,27.45
2023-10-23T19:45:25.246Z,27.44
2023-10-23T19:47:55.679Z,27.44
2023-10-23T19:50:26.042Z,27.43
2023-10-23T19:52:56.690Z,27.43
2023-10-23T19:55:43.414Z,27.42
2023-10-23T19:58:18.854Z,27.41
2023-10-23T20:00:49.849Z,27.39
2023-10-23T20:03:25.358Z,27.39
2023-10-23T20:05:58.601Z,27.38
2023-10-23T20:08:34.009Z,27.36
2023-10-23T20:11:04.555Z,27.36
2023-10-23T20:13:38.588Z,27.36
2023-10-23T20:16:09.247Z,27.35
2023-10-23T20:18:41.101Z,27.35
2023-10-23T20:21:11.632Z,27.34
2023-10-23T20:23:41.889Z,27.34
2023-10-23T20:26:15.241Z,27.32
2023-10-23T20:28:45.864Z,27.31
2023-10-23T20:31:16.596Z,27.31
2023-10-23T20:33:47.777Z,27.30
2023-10-23T20:36:20.986Z,27.30
2023-10-23T20:38:51.390Z,27.28
2023-10-23T20:41:22.007Z,27.27
2023-10-23T20:43:52.149Z,27.26
2023-10-23T20:46:22.110Z,27.27
2023-10-23T20:48:52.489Z,27.27
2023-10-23T20:51:22.861Z,27.24
2023-10-23T20:53:55.784Z,27.23
2023-10-23T20:56:25.899Z,27.23
2023-10-23T20:59:01.966Z,27.22
2023-10-23T21:01:35.992Z,27.20
2023-10-23T21:04:06.666Z,27.20
2023-10-23T21:06:36.574Z,27.19
2023-10-23T21:09:09.018Z,27.18
2023-10-23T21:11:39.563Z,27.17
2023-10-23T21:14:09.573Z,27.17
2023-10-23T21:16:39.518Z,27.16
2023-10-23T21:19:09.633Z,27.14
2023-10-23T21:21:40.028Z,27.15
2023-10-23T21:24:10.552Z,27.12
2023-10-23T21:26:40.770Z,27.11
2023-10-23T21:29:26.122Z,27.11
2023-10-23T21:31:56.211Z,27.09
2023-10-23T21:34:26.385Z,27.09
2023-10-23T21:36:56.660Z,27.08
2023-10-23T21:39:27.576Z,27.08
2023-10-23T21:41:59.677Z,27.07
2023-10-23T21:44:29.690Z,27.07
2023-10-23T21:47:19.970Z,27.07
2023-10-23T21:49:50.015Z,27.07
2023-10-23T21:52:20.052Z,27.07
2023-10-23T21:54:50.698Z,27.05
2023-10-23T21:57:23.663Z,27.05
2023-10-23T21:59:57.529Z,27.03
2023-10-23T22:02:27.735Z,27.03
2023-10-23T22:04:57.863Z,27.03
2023-10-23T22:07:31.084Z,27.01
2023-10-23T22:10:05.077Z,27.02
2023-10-23T22:12:35.474Z,27.01
2023-10-23T22:15:06.003Z,27.01
2023-10-23T22:17:36.362Z,26.99
2023-10-23T22:20:12.646Z,26.99
2023-10-23T22:22:43.244Z,27.00
2023-10-23T22:25:13.230Z,27.00
2023-10-23T22:27:43.767Z,26.99
2023-10-23T22:30:13.918Z,26.98
2023-10-23T22:32:44.416Z,26.99
2023-10-23T22:35:14.406Z,27.02
2023-10-23T22:37:58.682Z,27.06
2023-10-23T22:40:34.903Z,27.12
2023-10-23T22:43:05.038Z,27.16
2023-10-23T22:45:41.370Z,27.20
2023-10-23T22:48:21.323Z,27.27
2023-10-23T22:50:51.424Z,27.30
2023-10-23T22:53:21.779Z,27.33
2023-10-23T22:55:54.557Z,27.38
2023-10-23T22:58:30.241Z,27.40
2023-10-23T23:01:00.870Z,27.45
2023-10-23T23:03:31.432Z,27.47
2023-10-23T23:06:06.411Z,27.48
2023-10-23T23:08:39.214Z,27.49
2023-10-23T23:11:31.037Z,27.50
2023-10-23T23:14:01.256Z,27.51
2023-10-23T23:16:33.008Z,27.53
2023-10-23T23:19:04.705Z,27.54
2023-10-23T23:21:38.336Z,27.56
2023-10-23T23:24:08.895Z,27.30
2023-10-23T23:26:38.830Z,27.60
2023-10-23T23:29:08.790Z,27.65
2023-10-23T23:31:39.511Z,27.67
2023-10-23T23:34:09.590Z,27.71
2023-10-23T23:36:39.677Z,27.73
2023-10-23T23:39:11.218Z,27.76
2023-10-23T23:41:41.358Z,27.77
2023-10-23T23:44:11.227Z,27.77
2023-10-23T23:46:41.351Z,27.82
2023-10-23T23:49:11.704Z,27.85
2023-10-23T23:51:41.701Z,27.94
2023-10-23T23:54:12.036Z,27.99
2023-10-23T23:56:41.989Z,28.02
2023-10-23T23:59:12.221Z,28.06
